DWD Radarbild

   
[Quelle: ADDS]
METAR
EDLP 242320Z 23020KT 9999 FEW018 SCT023 OVC027 09/07 Q1002 =
EDLP 242300Z 2500/2524 23015G25KT 9999 FEW012 BKN020 TEMPO 2500/2503 24020G30KT BKN012 TEMPO 2509/2514 25020G35KT BECMG 2515/2517 23012KT TEMPO 2517/2524 SHRA BKN020CB PROB30 TEMPO 2517/2522 27015G25KT 3000 TSRAGS
TAF
EDLP 242300Z 2500/2524 23015G25KT 9999 FEW012 BKN020 TEMPO 2500/2503 24020G30KT BKN012 TEMPO 2509/2514 25020G35KT BECMG 2515/2517 23012KT TEMPO 2517/2524 SHRA BKN020CB PROB30 TEMPO 2517/2522 27015G25KT 3000 TSRAGS =
   
   

Meine WettercamWettercam aus Bielefeld Senne - Blickrichtung Süd-Ost

   
Moon phase
Phase:
Zunehmend

Mondphase:
2%

Alter:
1 Tag

Entfernung:
251,589 Km

Zeit:
00:41:03

Datum:
25-02-2020

   
<<  Feb 2020  >>
 Mo  Di  Mi  Do  Fr  Sa  So 
       1  2
  3  4  5  6  7  8  9
10111213141516
17181920212223
242526272829